Nashville, Tennessee
Traffic Map
Current Weather Conditions
Nashville, Tennessee
Broken Clouds
Broken Clouds

Feels Like: 7°
Wind Chill: Ceiling: 10000
Heat Index: Visibility: 10mi
Dew Point: Wind: 6mph
Humidity: 56% Direction: 150° (SSE)
Pressure: 30.35in Gusts: 0mph
Raw Report DataKBNA 221253Z 15005KT 10SM BKN100 08/00 A3035 RMK AO2 SLP278 T00830000
Traffic Incident Summary
Active as of:
Severity:
Category:
InformationThere was an issue retrieving the traffic information for this location. Please try a different location or try again shortly.
Advertisements
Track Severe Weather on mobile